createdAt,value
2017-07-02T00:01:51.191Z,1011.06
2017-07-02T00:03:52.890Z,1011.06
2017-07-02T00:05:54.378Z,1011.04
2017-07-02T00:07:55.840Z,1011.10
2017-07-02T00:09:57.307Z,1011.06
2017-07-02T00:11:58.754Z,1011.08
2017-07-02T00:14:00.225Z,1011.05
2017-07-02T00:16:01.679Z,1011.08
2017-07-02T00:18:03.110Z,1011.04
2017-07-02T00:20:04.574Z,1011.03
2017-07-02T00:22:06.022Z,1011.04
2017-07-02T00:24:07.455Z,1011.04
2017-07-02T00:26:09.180Z,1011.06
2017-07-02T00:28:10.652Z,1011.03
2017-07-02T00:30:12.141Z,1010.99
2017-07-02T00:32:13.591Z,1010.99
2017-07-02T00:34:15.039Z,1011.01
2017-07-02T00:36:16.466Z,1011.00
2017-07-02T00:38:17.919Z,1011.02
2017-07-02T00:40:19.468Z,1010.97
2017-07-02T00:42:20.906Z,1010.98
2017-07-02T00:44:22.333Z,1010.96
2017-07-02T00:46:23.764Z,1011.00
2017-07-02T00:48:25.193Z,1011.03
2017-07-02T00:50:26.635Z,1011.03
2017-07-02T00:52:28.101Z,1011.10
2017-07-02T00:54:29.584Z,1011.13
2017-07-02T00:56:31.279Z,1011.12
2017-07-02T00:58:33.013Z,1011.11
2017-07-02T01:00:34.809Z,1011.16
2017-07-02T01:02:36.351Z,1011.20
2017-07-02T01:04:38.054Z,1011.18
2017-07-02T01:06:39.816Z,1011.16
2017-07-02T01:08:41.377Z,1011.18
2017-07-02T01:10:43.169Z,1011.24
2017-07-02T01:12:44.893Z,1011.22
2017-07-02T01:14:46.389Z,1011.22
2017-07-02T01:16:47.857Z,1011.25
2017-07-02T01:18:49.436Z,1011.24
2017-07-02T01:20:50.959Z,1011.21
2017-07-02T01:22:52.712Z,1011.22
2017-07-02T01:24:54.149Z,1011.19
2017-07-02T01:26:55.604Z,1011.22
2017-07-02T01:28:57.034Z,1011.23
2017-07-02T01:30:58.610Z,1011.23
2017-07-02T01:33:00.321Z,1011.17
2017-07-02T01:35:02.120Z,1011.19
2017-07-02T01:37:03.591Z,1011.18
2017-07-02T01:39:05.017Z,1011.12
2017-07-02T01:41:06.565Z,1011.11
2017-07-02T01:43:08.017Z,1011.08
2017-07-02T01:45:09.523Z,1011.13
2017-07-02T01:47:10.997Z,1011.08
2017-07-02T01:49:12.465Z,1011.11
2017-07-02T01:51:13.902Z,1011.14
2017-07-02T01:53:15.328Z,1011.14
2017-07-02T01:55:16.764Z,1011.12
2017-07-02T01:57:18.190Z,1011.05
2017-07-02T01:59:19.616Z,1011.01
2017-07-02T02:01:21.059Z,1011.02
2017-07-02T02:03:22.488Z,1011.03
2017-07-02T02:05:23.958Z,1010.99
2017-07-02T02:07:25.746Z,1011.00
2017-07-02T02:09:27.483Z,1011.04
2017-07-02T02:11:28.902Z,1011.04
2017-07-02T02:13:30.363Z,1011.02
2017-07-02T02:15:31.866Z,1011.00
2017-07-02T02:17:33.490Z,1011.01
2017-07-02T02:19:35.261Z,1010.99
2017-07-02T02:21:36.997Z,1010.98
2017-07-02T02:23:38.818Z,1010.99
2017-07-02T02:25:40.255Z,1010.98
2017-07-02T02:27:41.783Z,1010.97
2017-07-02T02:29:43.242Z,1010.96
2017-07-02T02:31:44.673Z,1010.93
2017-07-02T02:33:46.115Z,1010.94
2017-07-02T02:35:47.545Z,1010.92
2017-07-02T02:37:48.978Z,1010.96
2017-07-02T02:39:50.430Z,1011.00
2017-07-02T02:41:51.945Z,1010.98
2017-07-02T02:43:53.744Z,1010.98
2017-07-02T02:45:55.376Z,1010.96
2017-07-02T02:47:57.126Z,1010.96
2017-07-02T02:49:58.685Z,1010.98
2017-07-02T02:52:00.123Z,1010.94
2017-07-02T02:54:01.572Z,1011.00
2017-07-02T02:56:03.296Z,1011.00
2017-07-02T02:58:04.967Z,1011.01
2017-07-02T03:00:06.559Z,1011.01
2017-07-02T03:02:08.242Z,1011.00
2017-07-02T03:04:09.707Z,1011.00
2017-07-02T03:06:11.176Z,1010.98
2017-07-02T03:08:12.734Z,1010.95
2017-07-02T03:10:14.199Z,1011.01
2017-07-02T03:12:15.674Z,1011.04
2017-07-02T03:14:17.084Z,1011.02
2017-07-02T03:16:18.508Z,1011.03
2017-07-02T03:18:19.939Z,1011.01
2017-07-02T03:20:21.364Z,1011.02
2017-07-02T03:22:22.793Z,1011.06
2017-07-02T03:24:24.216Z,1011.02
2017-07-02T03:26:25.642Z,1011.05
2017-07-02T03:28:27.160Z,1011.06
2017-07-02T03:30:28.648Z,1011.10
2017-07-02T03:32:30.400Z,1011.12
2017-07-02T03:34:31.995Z,1011.10
2017-07-02T03:36:33.504Z,1011.10
2017-07-02T03:38:35.259Z,1011.16
2017-07-02T03:40:36.686Z,1011.12
2017-07-02T03:42:38.137Z,1011.08
2017-07-02T03:44:39.577Z,1011.09
2017-07-02T03:46:41.014Z,1011.09
2017-07-02T03:48:42.439Z,1011.10
2017-07-02T03:50:43.883Z,1011.09
2017-07-02T03:52:45.316Z,1011.07
2017-07-02T03:54:46.761Z,1011.12
2017-07-02T03:56:48.196Z,1011.10
2017-07-02T03:58:49.626Z,1011.10
2017-07-02T04:00:51.054Z,1011.05
2017-07-02T04:02:52.483Z,1011.03
2017-07-02T04:04:53.990Z,1011.06
2017-07-02T04:06:55.401Z,1011.05
2017-07-02T04:08:56.835Z,1011.09
2017-07-02T04:10:58.265Z,1011.07
2017-07-02T04:12:59.694Z,1011.07
2017-07-02T04:15:01.256Z,1011.13
2017-07-02T04:17:02.709Z,1011.15
2017-07-02T04:19:04.272Z,1011.14
2017-07-02T04:21:05.693Z,1011.16
2017-07-02T04:23:07.126Z,1011.15
2017-07-02T04:25:08.544Z,1011.20
2017-07-02T04:27:09.979Z,1011.15
2017-07-02T04:29:11.407Z,1011.17
2017-07-02T04:31:13.008Z,1011.16
2017-07-02T04:33:14.706Z,1011.14
2017-07-02T04:35:16.207Z,1011.16
2017-07-02T04:37:17.981Z,1011.16
2017-07-02T04:39:19.711Z,1011.12
2017-07-02T04:41:21.419Z,1011.09
2017-07-02T04:43:22.856Z,1011.11
2017-07-02T04:45:24.562Z,1011.12
2017-07-02T04:47:26.329Z,1011.03
2017-07-02T04:49:27.778Z,1011.04
2017-07-02T04:51:29.559Z,1011.08
2017-07-02T04:53:31.133Z,1011.10
2017-07-02T04:55:32.650Z,1011.09
2017-07-02T04:57:34.121Z,1011.07
2017-07-02T04:59:35.551Z,1011.09
2017-07-02T05:01:37.024Z,1011.04
2017-07-02T05:03:38.502Z,1011.05
2017-07-02T05:05:39.971Z,1011.01
2017-07-02T05:07:41.421Z,1011.02
2017-07-02T05:09:42.848Z,1011.01
2017-07-02T05:11:44.423Z,1010.93
2017-07-02T05:13:45.902Z,1010.93
2017-07-02T05:15:47.341Z,1010.91
2017-07-02T05:17:48.831Z,1010.99
2017-07-02T05:19:50.289Z,1010.95
2017-07-02T05:21:51.711Z,1010.94
2017-07-02T05:23:53.141Z,1010.91
2017-07-02T05:25:54.575Z,1010.98
2017-07-02T05:27:56.004Z,1011.04
2017-07-02T05:29:57.435Z,1011.01
2017-07-02T05:31:58.864Z,1011.03
2017-07-02T05:34:00.306Z,1011.04
2017-07-02T05:36:01.735Z,1011.08
2017-07-02T05:38:03.163Z,1011.04
2017-07-02T05:40:04.603Z,1011.09
2017-07-02T05:42:06.043Z,1011.12
2017-07-02T05:44:07.581Z,1011.09
2017-07-02T05:46:09.201Z,1011.09
2017-07-02T05:48:10.645Z,1011.10
2017-07-02T05:50:12.120Z,1011.09
2017-07-02T05:52:13.659Z,1011.06
2017-07-02T05:54:15.189Z,1011.03
2017-07-02T05:56:16.975Z,1011.04
2017-07-02T05:58:18.422Z,1010.99
2017-07-02T06:00:20.223Z,1011.01
2017-07-02T06:02:21.660Z,1011.04
2017-07-02T06:04:23.256Z,1011.06
2017-07-02T06:06:24.732Z,1011.05
2017-07-02T06:08:26.217Z,1011.12
2017-07-02T06:10:27.913Z,1011.14
2017-07-02T06:12:29.354Z,1011.18
2017-07-02T06:14:30.778Z,1011.22
2017-07-02T06:16:32.207Z,1011.22
2017-07-02T06:18:33.638Z,1011.20
2017-07-02T06:20:35.067Z,1011.23
2017-07-02T06:22:36.497Z,1011.20
2017-07-02T06:24:37.924Z,1011.29
2017-07-02T06:26:39.352Z,1011.30
2017-07-02T06:28:40.783Z,1011.31
2017-07-02T06:30:42.218Z,1011.37
2017-07-02T06:32:43.641Z,1011.34
2017-07-02T06:34:45.073Z,1011.33
2017-07-02T06:36:46.504Z,1011.34
2017-07-02T06:38:47.930Z,1011.35
2017-07-02T06:40:49.352Z,1011.39
2017-07-02T06:42:50.798Z,1011.34
2017-07-02T06:44:52.229Z,1011.39
2017-07-02T06:46:53.657Z,1011.39
2017-07-02T06:48:55.085Z,1011.45
2017-07-02T06:50:56.518Z,1011.49
2017-07-02T06:52:57.947Z,1011.55
2017-07-02T06:54:59.378Z,1011.53
2017-07-02T06:57:00.810Z,1011.52
2017-07-02T06:59:02.240Z,1011.56
2017-07-02T07:01:03.670Z,1011.53
2017-07-02T07:03:05.130Z,1011.56
2017-07-02T07:05:06.620Z,1011.57
2017-07-02T07:07:08.056Z,1011.58
2017-07-02T07:09:09.489Z,1011.58
2017-07-02T07:11:10.927Z,1011.59
2017-07-02T07:13:12.361Z,1011.62
2017-07-02T07:15:13.785Z,1011.62
2017-07-02T07:17:15.218Z,1011.62
2017-07-02T07:19:16.649Z,1011.62
2017-07-02T07:21:18.085Z,1011.67
2017-07-02T07:23:19.508Z,1011.65
2017-07-02T07:25:20.935Z,1011.63
2017-07-02T07:27:22.363Z,1011.63
2017-07-02T07:29:23.792Z,1011.69
2017-07-02T07:31:25.222Z,1011.65
2017-07-02T07:33:26.650Z,1011.68
2017-07-02T07:35:28.080Z,1011.68
2017-07-02T07:37:31.102Z,1011.71
2017-07-02T07:39:32.537Z,1011.72
2017-07-02T07:41:33.961Z,1011.75
2017-07-02T07:43:35.409Z,1011.74
2017-07-02T07:45:36.848Z,1011.77
2017-07-02T07:47:38.281Z,1011.81
2017-07-02T07:49:40.091Z,1011.76
2017-07-02T07:51:41.475Z,1011.78
2017-07-02T07:53:42.961Z,1011.79
2017-07-02T07:55:44.438Z,1011.82
2017-07-02T07:57:45.992Z,1011.85
2017-07-02T07:59:47.799Z,1011.88
2017-07-02T08:01:49.276Z,1011.91
2017-07-02T08:03:50.823Z,1011.88
2017-07-02T08:05:52.326Z,1011.94
2017-07-02T08:07:53.924Z,1011.89
2017-07-02T08:09:55.399Z,1011.89
2017-07-02T08:11:57.259Z,1011.90
2017-07-02T08:14:41.613Z,1011.89
2017-07-02T08:16:43.112Z,1011.90
2017-07-02T08:19:25.864Z,1011.89
2017-07-02T08:21:27.421Z,1011.88
2017-07-02T08:23:29.220Z,1011.86
2017-07-02T08:25:31.183Z,1011.92
2017-07-02T08:27:33.098Z,1011.95
2017-07-02T08:29:34.903Z,1011.95
2017-07-02T08:31:36.678Z,1011.91
2017-07-02T08:33:38.791Z,1011.94
2017-07-02T08:35:40.684Z,1011.98
2017-07-02T08:37:42.510Z,1012.03
2017-07-02T08:39:44.462Z,1012.06
2017-07-02T08:42:27.199Z,1012.02
2017-07-02T08:44:29.329Z,1012.00
2017-07-02T08:46:31.321Z,1012.03
2017-07-02T08:48:33.404Z,1012.10
2017-07-02T08:50:35.089Z,1012.13
2017-07-02T08:52:36.895Z,1012.12
2017-07-02T08:54:38.769Z,1012.13
2017-07-02T08:56:40.302Z,1012.15
2017-07-02T08:58:41.792Z,1012.16
2017-07-02T09:00:43.340Z,1012.19
2017-07-02T09:02:44.879Z,1012.14
2017-07-02T09:04:46.352Z,1012.17
2017-07-02T09:06:47.859Z,1012.15
2017-07-02T09:08:49.334Z,1012.14
2017-07-02T09:10:50.903Z,1012.12
2017-07-02T09:12:52.387Z,1012.15
2017-07-02T09:14:53.815Z,1012.14
2017-07-02T09:16:55.317Z,1012.12
2017-07-02T09:18:56.743Z,1012.14
2017-07-02T09:20:58.188Z,1012.15
2017-07-02T09:22:59.641Z,1012.16
2017-07-02T09:25:01.075Z,1012.16
2017-07-02T09:27:02.504Z,1012.23
2017-07-02T09:29:03.950Z,1012.25
2017-07-02T09:31:05.563Z,1012.29
2017-07-02T09:33:07.030Z,1012.33
2017-07-02T09:35:08.531Z,1012.39
2017-07-02T09:37:09.964Z,1012.37
2017-07-02T09:39:12.158Z,1012.39
2017-07-02T09:41:13.591Z,1012.45
2017-07-02T09:43:15.096Z,1012.44
2017-07-02T09:45:16.511Z,1012.51
2017-07-02T09:47:17.976Z,1012.54
2017-07-02T09:49:19.379Z,1012.55
2017-07-02T09:51:20.818Z,1012.52
2017-07-02T09:53:22.296Z,1012.53
2017-07-02T09:55:23.756Z,1012.51
2017-07-02T09:57:25.226Z,1012.57
2017-07-02T09:59:26.710Z,1012.60
2017-07-02T10:01:28.150Z,1012.63
2017-07-02T10:03:29.582Z,1012.63
2017-07-02T10:05:31.011Z,1012.68
2017-07-02T10:07:32.450Z,1012.64
2017-07-02T10:09:33.888Z,1012.68
2017-07-02T10:11:35.342Z,1012.64
2017-07-02T10:13:36.812Z,1012.67
2017-07-02T10:15:38.345Z,1012.67
2017-07-02T10:17:40.189Z,1012.73
2017-07-02T10:19:41.891Z,1012.71
2017-07-02T10:21:43.605Z,1012.72
2017-07-02T10:23:45.486Z,1012.74
2017-07-02T10:25:47.055Z,1012.77
2017-07-02T10:27:48.876Z,1012.83
2017-07-02T10:29:50.579Z,1012.81
2017-07-02T10:31:52.328Z,1012.84
2017-07-02T10:33:54.041Z,1012.86
2017-07-02T10:35:55.905Z,1012.80
2017-07-02T10:37:57.626Z,1012.90
2017-07-02T10:39:59.326Z,1012.90
2017-07-02T10:42:01.074Z,1012.93
2017-07-02T10:44:02.770Z,1012.90
2017-07-02T10:46:04.553Z,1012.96
2017-07-02T10:48:06.256Z,1012.97
2017-07-02T10:50:08.015Z,1012.90
2017-07-02T10:52:09.723Z,1012.91
2017-07-02T10:54:12.102Z,1012.95
2017-07-02T10:56:13.917Z,1012.89
2017-07-02T10:58:16.311Z,1012.86
2017-07-02T11:00:18.063Z,1012.83
2017-07-02T11:02:19.747Z,1012.82
2017-07-02T11:04:21.543Z,1012.81
2017-07-02T11:06:23.503Z,1012.84
2017-07-02T11:08:25.405Z,1012.80
2017-07-02T11:10:27.191Z,1012.81
2017-07-02T11:12:28.855Z,1012.79
2017-07-02T11:14:30.544Z,1012.79
2017-07-02T11:16:32.272Z,1012.85
2017-07-02T11:18:34.205Z,1012.87
2017-07-02T11:20:36.114Z,1012.89
2017-07-02T11:22:37.896Z,1012.92
2017-07-02T11:24:39.811Z,1012.85
2017-07-02T11:26:41.774Z,1012.90
2017-07-02T11:28:43.670Z,1012.88
2017-07-02T11:30:45.401Z,1012.96
2017-07-02T11:32:47.324Z,1012.97
2017-07-02T11:34:49.160Z,1012.90
2017-07-02T11:36:51.004Z,1012.96
2017-07-02T11:38:53.118Z,1012.93
2017-07-02T11:40:55.046Z,1012.96
2017-07-02T11:42:57.064Z,1012.94
2017-07-02T11:44:59.042Z,1012.87
2017-07-02T11:47:00.978Z,1012.88
2017-07-02T11:49:02.756Z,1012.91
2017-07-02T11:51:05.106Z,1012.96
2017-07-02T11:53:07.435Z,1012.93
2017-07-02T11:55:09.313Z,1012.89
2017-07-02T11:57:11.185Z,1012.91
2017-07-02T11:59:13.085Z,1012.94
2017-07-02T12:01:14.958Z,1012.92
2017-07-02T12:03:16.822Z,1012.97
2017-07-02T12:05:18.749Z,1012.99
2017-07-02T12:07:20.581Z,1012.95
2017-07-02T12:09:22.087Z,1012.96
2017-07-02T12:11:23.555Z,1012.95
2017-07-02T12:13:25.033Z,1012.93
2017-07-02T12:15:26.521Z,1012.93
2017-07-02T12:17:27.983Z,1012.90
2017-07-02T12:19:29.480Z,1012.97
2017-07-02T12:21:30.963Z,1012.90
2017-07-02T12:23:32.501Z,1012.99
2017-07-02T12:25:33.992Z,1012.98
2017-07-02T12:27:35.444Z,1013.00
2017-07-02T12:29:36.997Z,1012.94
2017-07-02T12:31:38.435Z,1013.01
2017-07-02T12:33:39.927Z,1012.93
2017-07-02T12:35:41.377Z,1013.04
2017-07-02T12:37:42.935Z,1012.97
2017-07-02T12:39:44.631Z,1013.05
2017-07-02T12:41:46.464Z,1013.01
2017-07-02T12:43:48.291Z,1013.04
2017-07-02T12:45:50.405Z,1013.02
2017-07-02T12:47:52.226Z,1013.01
2017-07-02T12:49:54.048Z,1012.97
2017-07-02T12:51:55.980Z,1012.95
2017-07-02T12:53:57.837Z,1013.03
2017-07-02T12:55:59.724Z,1013.03
2017-07-02T12:58:03.248Z,1013.03
2017-07-02T13:00:04.816Z,1013.05
2017-07-02T13:02:06.703Z,1013.10
2017-07-02T13:04:08.569Z,1013.16
2017-07-02T13:06:10.175Z,1013.05
2017-07-02T13:08:12.062Z,1013.12
2017-07-02T13:10:13.969Z,1013.16
2017-07-02T13:12:15.695Z,1013.19
2017-07-02T13:14:17.532Z,1013.21
2017-07-02T13:16:19.357Z,1013.25
2017-07-02T13:18:21.332Z,1013.34
2017-07-02T13:20:23.074Z,1013.32
2017-07-02T13:22:25.074Z,1013.31
2017-07-02T13:24:27.193Z,1013.33
2017-07-02T13:26:30.281Z,1013.28
2017-07-02T13:28:33.227Z,1013.37
2017-07-02T13:30:35.158Z,1013.34
2017-07-02T13:32:37.002Z,1013.33
2017-07-02T13:34:38.869Z,1013.38
2017-07-02T13:36:41.407Z,1013.44
2017-07-02T13:38:43.712Z,1013.48
2017-07-02T13:40:45.469Z,1013.50
2017-07-02T13:42:47.030Z,1013.55
2017-07-02T13:44:48.537Z,1013.49
2017-07-02T13:46:50.061Z,1013.49
2017-07-02T13:48:51.624Z,1013.52
2017-07-02T13:50:54.057Z,1013.50
2017-07-02T13:52:55.715Z,1013.54
2017-07-02T13:54:57.539Z,1013.50
2017-07-02T13:56:59.056Z,1013.60
2017-07-02T13:59:01.360Z,1013.60
2017-07-02T14:01:04.211Z,1013.68
2017-07-02T14:03:06.435Z,1013.68
2017-07-02T14:05:07.868Z,1013.62
2017-07-02T14:07:09.521Z,1013.64
2017-07-02T14:09:11.100Z,1013.66
2017-07-02T14:11:12.642Z,1013.72
2017-07-02T14:13:14.536Z,1013.78
2017-07-02T14:15:16.103Z,1013.81
2017-07-02T14:17:18.666Z,1013.87
2017-07-02T14:19:20.415Z,1013.87
2017-07-02T14:21:22.293Z,1013.93
2017-07-02T14:23:23.842Z,1013.86
2017-07-02T14:25:26.145Z,1013.90
2017-07-02T14:27:28.017Z,1013.91
2017-07-02T14:29:29.761Z,1013.92
2017-07-02T14:31:31.332Z,1013.99
2017-07-02T14:33:32.853Z,1013.96
2017-07-02T14:35:34.642Z,1013.93
2017-07-02T14:37:36.458Z,1013.92
2017-07-02T14:39:38.240Z,1013.93
2017-07-02T14:41:40.963Z,1013.91
2017-07-02T14:43:42.694Z,1013.85
2017-07-02T14:45:44.583Z,1013.87
2017-07-02T14:47:46.385Z,1013.92
2017-07-02T14:49:48.183Z,1013.96
2017-07-02T14:51:49.975Z,1014.02
2017-07-02T14:53:52.210Z,1014.00
2017-07-02T14:55:54.352Z,1013.90
2017-07-02T14:57:56.228Z,1013.92
2017-07-02T14:59:58.016Z,1013.89
2017-07-02T15:01:59.974Z,1013.95
2017-07-02T15:04:01.881Z,1013.88
2017-07-02T15:06:03.441Z,1013.94
2017-07-02T15:08:05.353Z,1013.90
2017-07-02T15:10:07.157Z,1013.98
2017-07-02T15:12:08.873Z,1013.94
2017-07-02T15:14:10.701Z,1014.02
2017-07-02T15:16:12.585Z,1014.00
2017-07-02T15:18:14.539Z,1014.08
2017-07-02T15:20:16.286Z,1014.10
2017-07-02T15:22:18.115Z,1014.08
2017-07-02T15:24:19.897Z,1014.09
2017-07-02T15:26:21.749Z,1014.15
2017-07-02T15:28:23.639Z,1014.16
2017-07-02T15:30:25.302Z,1014.15
2017-07-02T15:32:27.112Z,1014.17
2017-07-02T15:34:28.914Z,1014.13
2017-07-02T15:36:30.513Z,1014.18
2017-07-02T15:38:32.305Z,1014.20
2017-07-02T15:40:33.817Z,1014.23
2017-07-02T15:42:35.327Z,1014.26
2017-07-02T15:44:36.873Z,1014.21
2017-07-02T15:46:38.756Z,1014.28
2017-07-02T15:48:40.680Z,1014.23
2017-07-02T15:50:42.374Z,1014.28
2017-07-02T15:52:44.101Z,1014.31
2017-07-02T15:54:45.877Z,1014.37
2017-07-02T15:56:47.614Z,1014.27
2017-07-02T15:58:49.085Z,1014.32
2017-07-02T16:00:50.570Z,1014.37
2017-07-02T16:02:52.045Z,1014.38
2017-07-02T16:04:53.522Z,1014.35
2017-07-02T16:06:55.169Z,1014.37
2017-07-02T16:08:57.025Z,1014.31
2017-07-02T16:10:58.748Z,1014.34
2017-07-02T16:13:00.463Z,1014.36
2017-07-02T16:15:02.279Z,1014.38
2017-07-02T16:17:03.830Z,1014.43
2017-07-02T16:19:05.278Z,1014.42
2017-07-02T16:21:06.752Z,1014.43
2017-07-02T16:23:08.214Z,1014.48
2017-07-02T16:25:09.710Z,1014.42
2017-07-02T16:27:11.173Z,1014.45
2017-07-02T16:29:12.633Z,1014.51
2017-07-02T16:31:14.156Z,1014.51
2017-07-02T16:33:15.629Z,1014.50
2017-07-02T16:35:17.088Z,1014.53
2017-07-02T16:37:18.570Z,1014.52
2017-07-02T16:39:20.070Z,1014.53
2017-07-02T16:41:21.543Z,1014.60
2017-07-02T16:43:23.018Z,1014.58
2017-07-02T16:45:24.486Z,1014.58
2017-07-02T16:47:25.949Z,1014.59
2017-07-02T16:49:27.439Z,1014.64
2017-07-02T16:51:28.879Z,1014.64
2017-07-02T16:53:30.589Z,1014.67
2017-07-02T16:55:32.341Z,1014.67
2017-07-02T16:57:34.045Z,1014.71
2017-07-02T16:59:35.740Z,1014.67
2017-07-02T17:01:37.511Z,1014.71
2017-07-02T17:03:39.365Z,1014.72
2017-07-02T17:05:41.190Z,1014.75
2017-07-02T17:07:42.801Z,1014.76
2017-07-02T17:09:44.505Z,1014.75
2017-07-02T17:11:46.290Z,1014.77
2017-07-02T17:13:47.897Z,1014.83
2017-07-02T17:15:49.404Z,1014.86
2017-07-02T17:17:50.845Z,1014.86
2017-07-02T17:19:52.298Z,1014.93
2017-07-02T17:21:53.788Z,1014.92
2017-07-02T17:23:55.291Z,1014.93
2017-07-02T17:25:56.949Z,1014.93
2017-07-02T17:27:58.682Z,1014.93
2017-07-02T17:30:00.375Z,1014.90
2017-07-02T17:32:02.000Z,1014.90
2017-07-02T17:34:03.835Z,1014.85
2017-07-02T17:36:05.561Z,1014.87
2017-07-02T17:38:09.967Z,1014.83
2017-07-02T17:40:11.724Z,1014.89
2017-07-02T17:42:13.493Z,1014.90
2017-07-02T17:44:15.263Z,1014.89
2017-07-02T17:46:16.982Z,1014.88
2017-07-02T17:48:18.646Z,1014.90
2017-07-02T17:50:20.458Z,1014.89
2017-07-02T17:52:22.199Z,1014.90
2017-07-02T17:54:23.926Z,1014.95
2017-07-02T17:56:25.689Z,1014.99
2017-07-02T17:58:27.490Z,1014.97
2017-07-02T18:00:29.484Z,1015.03
2017-07-02T18:02:31.351Z,1015.02
2017-07-02T18:04:33.092Z,1015.03
2017-07-02T18:06:34.806Z,1015.02
2017-07-02T18:08:36.340Z,1015.05
2017-07-02T18:10:37.960Z,1015.10
2017-07-02T18:12:39.441Z,1015.09
2017-07-02T18:14:40.944Z,1015.15
2017-07-02T18:16:42.471Z,1015.14
2017-07-02T18:18:43.952Z,1015.20
2017-07-02T18:20:45.480Z,1015.20
2017-07-02T18:22:47.030Z,1015.24
2017-07-02T18:24:48.512Z,1015.27
2017-07-02T18:26:49.981Z,1015.24
2017-07-02T18:28:51.449Z,1015.27
2017-07-02T18:30:52.962Z,1015.30
2017-07-02T18:32:54.625Z,1015.32
2017-07-02T18:34:56.125Z,1015.30
2017-07-02T18:36:57.601Z,1015.28
2017-07-02T18:38:59.113Z,1015.29
2017-07-02T18:41:00.575Z,1015.32
2017-07-02T18:43:02.012Z,1015.35
2017-07-02T18:45:03.522Z,1015.38
2017-07-02T18:47:05.109Z,1015.38
2017-07-02T18:49:06.853Z,1015.44
2017-07-02T18:51:08.947Z,1015.44
2017-07-02T18:53:10.721Z,1015.48
2017-07-02T18:55:12.472Z,1015.51
2017-07-02T18:57:14.079Z,1015.46
2017-07-02T18:59:15.589Z,1015.52
2017-07-02T19:01:17.941Z,1015.53
2017-07-02T19:03:19.614Z,1015.58
2017-07-02T19:05:21.127Z,1015.60
2017-07-02T19:07:22.598Z,1015.63
2017-07-02T19:09:24.108Z,1015.64
2017-07-02T19:11:25.594Z,1015.69
2017-07-02T19:13:27.052Z,1015.73
2017-07-02T19:15:28.613Z,1015.77
2017-07-02T19:17:30.127Z,1015.79
2017-07-02T19:19:31.620Z,1015.81
2017-07-02T19:21:33.084Z,1015.80
2017-07-02T19:23:34.747Z,1015.83
2017-07-02T19:25:36.494Z,1015.91
2017-07-02T19:27:38.199Z,1015.94
2017-07-02T19:29:39.959Z,1015.90
2017-07-02T19:31:41.785Z,1015.93
2017-07-02T19:33:43.569Z,1015.96
2017-07-02T19:35:45.293Z,1016.00
2017-07-02T19:37:46.822Z,1016.04
2017-07-02T19:39:48.300Z,1016.07
2017-07-02T19:41:49.852Z,1016.06
2017-07-02T19:43:52.465Z,1016.09
2017-07-02T19:45:54.247Z,1016.16
2017-07-02T19:47:56.041Z,1016.21
2017-07-02T19:49:57.803Z,1016.26
2017-07-02T19:51:59.587Z,1016.27
2017-07-02T19:54:01.125Z,1016.29
2017-07-02T19:56:02.654Z,1016.35
2017-07-02T19:58:04.238Z,1016.38
2017-07-02T20:00:05.674Z,1016.37
2017-07-02T20:02:07.107Z,1016.41
2017-07-02T20:04:08.536Z,1016.37
2017-07-02T20:06:09.952Z,1016.39
2017-07-02T20:08:11.399Z,1016.46
2017-07-02T20:10:12.831Z,1016.50
2017-07-02T20:12:14.263Z,1016.53
2017-07-02T20:14:15.694Z,1016.60
2017-07-02T20:16:17.124Z,1016.63
2017-07-02T20:18:18.552Z,1016.61
2017-07-02T20:20:19.982Z,1016.60
2017-07-02T20:22:21.425Z,1016.63
2017-07-02T20:24:22.861Z,1016.68
2017-07-02T20:26:24.309Z,1016.72
2017-07-02T20:28:25.737Z,1016.68
2017-07-02T20:30:27.166Z,1016.72
2017-07-02T20:32:28.594Z,1016.71
2017-07-02T20:34:30.022Z,1016.73
2017-07-02T20:36:31.480Z,1016.73
2017-07-02T20:38:32.906Z,1016.79
2017-07-02T20:40:34.425Z,1016.83
2017-07-02T20:42:35.943Z,1016.83
2017-07-02T20:44:37.712Z,1016.81
2017-07-02T20:46:39.423Z,1016.88
2017-07-02T20:48:41.295Z,1016.92
2017-07-02T20:50:43.038Z,1016.91
2017-07-02T20:52:45.006Z,1016.91
2017-07-02T20:54:46.835Z,1016.90
2017-07-02T20:56:48.680Z,1016.90
2017-07-02T20:58:50.423Z,1016.93
2017-07-02T21:00:52.110Z,1016.95
2017-07-02T21:02:53.645Z,1016.93
2017-07-02T21:04:55.116Z,1016.91
2017-07-02T21:06:56.588Z,1016.94
2017-07-02T21:08:58.304Z,1016.93
2017-07-02T21:10:59.961Z,1016.95
2017-07-02T21:13:01.786Z,1016.97
2017-07-02T21:15:03.601Z,1016.94
2017-07-02T21:17:05.200Z,1016.98
2017-07-02T21:19:06.667Z,1016.96
2017-07-02T21:21:08.124Z,1017.03
2017-07-02T21:23:09.586Z,1017.06
2017-07-02T21:25:11.041Z,1017.08
2017-07-02T21:27:12.617Z,1017.09
2017-07-02T21:29:14.054Z,1017.10
2017-07-02T21:31:15.528Z,1017.11
2017-07-02T21:33:17.010Z,1017.15
2017-07-02T21:35:19.070Z,1017.13
2017-07-02T21:37:20.531Z,1017.15
2017-07-02T21:39:21.963Z,1017.15
2017-07-02T21:41:23.390Z,1017.15
2017-07-02T21:43:24.820Z,1017.16
2017-07-02T21:45:26.292Z,1017.18
2017-07-02T21:47:27.860Z,1017.22
2017-07-02T21:49:29.584Z,1017.21
2017-07-02T21:51:31.268Z,1017.19
2017-07-02T21:53:32.756Z,1017.18
2017-07-02T21:55:34.240Z,1017.21
2017-07-02T21:57:35.660Z,1017.22
2017-07-02T21:59:37.079Z,1017.28
2017-07-02T22:01:38.532Z,1017.26
2017-07-02T22:03:39.992Z,1017.23
2017-07-02T22:05:41.451Z,1017.24
2017-07-02T22:07:42.881Z,1017.27
2017-07-02T22:09:44.403Z,1017.29
2017-07-02T22:11:45.879Z,1017.27
2017-07-02T22:13:47.496Z,1017.33
2017-07-02T22:15:48.964Z,1017.29
2017-07-02T22:17:50.412Z,1017.30
2017-07-02T22:19:51.963Z,1017.29
2017-07-02T22:21:53.924Z,1017.33
2017-07-02T22:23:55.642Z,1017.29
2017-07-02T22:25:57.314Z,1017.27
2017-07-02T22:27:59.029Z,1017.28
2017-07-02T22:30:01.113Z,1017.28
2017-07-02T22:32:02.821Z,1017.32
2017-07-02T22:34:04.502Z,1017.29
2017-07-02T22:36:06.012Z,1017.29
2017-07-02T22:38:07.670Z,1017.31
2017-07-02T22:40:09.286Z,1017.30
2017-07-02T22:42:10.790Z,1017.37
2017-07-02T22:44:12.367Z,1017.38
2017-07-02T22:46:13.823Z,1017.37
2017-07-02T22:48:15.379Z,1017.32
2017-07-02T22:50:17.297Z,1017.32
2017-07-02T22:52:19.002Z,1017.30
2017-07-02T22:54:20.507Z,1017.28
2017-07-02T22:56:22.010Z,1017.24
2017-07-02T22:58:23.521Z,1017.29
2017-07-02T23:00:25.049Z,1017.26
2017-07-02T23:02:26.668Z,1017.26
2017-07-02T23:04:28.368Z,1017.20
2017-07-02T23:06:29.859Z,1017.21
2017-07-02T23:08:31.298Z,1017.22
2017-07-02T23:10:32.838Z,1017.22
2017-07-02T23:12:34.290Z,1017.25
2017-07-02T23:14:35.967Z,1017.24
2017-07-02T23:16:38.220Z,1017.26
2017-07-02T23:18:41.028Z,1017.30
2017-07-02T23:20:42.840Z,1017.25
2017-07-02T23:22:44.604Z,1017.33
2017-07-02T23:24:46.247Z,1017.38
2017-07-02T23:26:47.948Z,1017.37
2017-07-02T23:28:49.671Z,1017.37
2017-07-02T23:30:51.338Z,1017.39
2017-07-02T23:32:53.387Z,1017.42
2017-07-02T23:34:55.673Z,1017.40
2017-07-02T23:36:57.380Z,1017.42
2017-07-02T23:38:59.056Z,1017.45
2017-07-02T23:41:00.536Z,1017.43
2017-07-02T23:43:02.153Z,1017.48
2017-07-02T23:45:04.346Z,1017.49
2017-07-02T23:47:05.867Z,1017.50
2017-07-02T23:49:07.499Z,1017.51
2017-07-02T23:51:09.129Z,1017.50
2017-07-02T23:53:10.889Z,1017.55
2017-07-02T23:55:12.704Z,1017.51
2017-07-02T23:57:14.428Z,1017.53
2017-07-02T23:59:16.155Z,1017.54
